Madeira — VMQ8791 — position and weather

sailwx.info

Track history (hours):
 
Tides and Currents Weather Stations Pressure Air Temp Water Temp Dewpoint Dewpoint Depression Visibility Wind Speed Wind Dir Waves Ship Positions

Madeira

Last reported at 2018-Jan-08 22:30 UTC. Time now 2018-Jan-24 12:07 UTC.
Position S 32°32' E 152°25'.
Warning: this ship's position is 15 days out of date.

Length 23 m.

Type: Sailing vessel. MMSI: 503094900.

Date/timePositionNaut miles runAvg speedWind from/ knotsBaromVisibWave heightAir tempDewpointWater temp
2018-Jan-08 22:30S 32°32' E 152°25'4 7.1
2018-Jan-08 22:00S 32°34' E 152°21'3 6.8
2018-Jan-08 21:30S 32°37' E 152°18'1 0.0
2018-Jan-08 10:22S 32°37' E 152°19'0 0.1
2018-Jan-08 09:58S 32°37' E 152°19'0 0.0
2018-Jan-08 07:16S 32°37' E 152°19'0 0.0
2018-Jan-08 06:58S 32°37' E 152°19'0 0.0
2018-Jan-08 06:28S 32°37' E 152°19'0 0.0
2018-Jan-08 05:58S 32°37' E 152°19'0 0.0
2018-Jan-08 05:28S 32°37' E 152°19'0 0.0
2018-Jan-08 04:58S 32°37' E 152°19'0 0.0
2018-Jan-08 04:25S 32°37' E 152°19'0 0.0
2018-Jan-08 03:58S 32°37' E 152°19'0 0.0
2018-Jan-08 03:28S 32°37' E 152°19'0 0.0
2018-Jan-08 02:58S 32°37' E 152°19'0 0.0
2018-Jan-08 02:28S 32°37' E 152°19'0 0.0
2018-Jan-08 01:58S 32°37' E 152°19'0 0.0
2018-Jan-08 01:28S 32°37' E 152°19'0 0.0
2018-Jan-08 00:58S 32°37' E 152°19'0 0.0
2018-Jan-08 00:28S 32°37' E 152°19'0 0.0
2018-Jan-08 00:00S 32°37' E 152°19'0 0.9
2018-Jan-07 23:30S 32°37' E 152°18'3 6.9
2018-Jan-07 23:00S 32°40' E 152°16'4 7.0
2018-Jan-07 22:30S 32°42' E 152°12'3 5.4
2018-Jan-07 21:58S 32°43' E 152°09'0 0.0
2018-Jan-07 21:28S 32°43' E 152°09'0 0.0
2018-Jan-07 20:58S 32°43' E 152°09'0 0.0
2018-Jan-07 20:28S 32°43' E 152°09'0 0.0
2018-Jan-07 19:58S 32°43' E 152°09'0 0.0
2018-Jan-07 19:28S 32°43' E 152°09'0 0.0
2018-Jan-07 18:58S 32°43' E 152°09'0 0.0
2018-Jan-07 18:28S 32°43' E 152°09'0 0.0
2018-Jan-07 17:58S 32°43' E 152°09'0 0.0
2018-Jan-07 17:28S 32°43' E 152°09'0 0.0
2018-Jan-07 16:58S 32°43' E 152°09'0 0.0
2018-Jan-07 16:25S 32°43' E 152°09'0 0.0
2018-Jan-07 15:55S 32°43' E 152°09'0 0.0
2018-Jan-07 15:28S 32°43' E 152°09'0 0.0
2018-Jan-07 14:58S 32°43' E 152°09'0 0.0
2018-Jan-07 14:28S 32°43' E 152°09'0 0.0
2018-Jan-07 13:58S 32°43' E 152°09'0 0.0
2018-Jan-07 13:28S 32°43' E 152°09'0 0.0
2018-Jan-07 12:58S 32°43' E 152°09'0 0.0
2018-Jan-07 12:28S 32°43' E 152°09'0 0.0
2018-Jan-07 11:55S 32°43' E 152°09'0 0.0
2018-Jan-07 11:28S 32°43' E 152°09'0 0.0
2018-Jan-07 10:58S 32°43' E 152°09'0 0.0
2018-Jan-07 10:28S 32°43' E 152°09'0 0.0
2018-Jan-07 09:58S 32°43' E 152°09'0 0.0
2018-Jan-07 09:28S 32°43' E 152°09'0 0.0
2018-Jan-07 08:58S 32°43' E 152°09'0 0.0
2018-Jan-07 08:28S 32°43' E 152°09'1 1.8
2018-Jan-07 07:58S 32°43' E 152°08'0 0.0
2018-Jan-07 07:28S 32°43' E 152°08'0 0.0
2018-Jan-07 06:58S 32°43' E 152°08'0 0.0
2018-Jan-07 06:28S 32°43' E 152°08'0 0.0
2018-Jan-07 05:58S 32°43' E 152°08'0 0.0
2018-Jan-07 05:28S 32°43' E 152°08'0 0.0
2018-Jan-07 04:58S 32°43' E 152°08'0 0.0
2018-Jan-07 04:28S 32°43' E 152°08'0 0.0
2018-Jan-07 03:58S 32°43' E 152°08'0 0.0
2018-Jan-07 03:28S 32°43' E 152°08'0 0.0
2018-Jan-07 02:58S 32°43' E 152°08'0 0.0
2018-Jan-07 02:28S 32°43' E 152°08'0 0.0
2018-Jan-07 01:58S 32°43' E 152°08'0 0.0
2018-Jan-07 01:28S 32°43' E 152°08'0 0.0
2018-Jan-07 00:28S 32°43' E 152°08'0 0.1
2018-Jan-06 23:58S 32°43' E 152°08'2 4.6
2018-Jan-06 23:30S 32°43' E 152°05'2 2.8
2018-Jan-06 22:58S 32°42' E 152°04'0 0.0
2018-Jan-06 21:01S 32°42' E 152°04'0 0.0
2018-Jan-06 20:01S 32°42' E 152°04'0 0.0
2018-Jan-06 19:58S 32°42' E 152°04'0 0.0
2018-Jan-06 17:13S 32°42' E 152°04'0 0.0
2018-Jan-06 15:37S 32°42' E 152°04'0 0.0
2018-Jan-06 06:10S 32°42' E 152°04'0 0.0
2018-Jan-06 05:46S 32°42' E 152°04'0 0.0
2018-Jan-06 05:25S 32°42' E 152°04'0 0.0
2018-Jan-06 03:01S 32°42' E 152°04'0 0.0
2018-Jan-06 02:58S 32°42' E 152°04'0 0.0
2018-Jan-06 01:25S 32°42' E 152°04'0 0.0
2018-Jan-06 00:49S 32°42' E 152°04'0 0.0
2018-Jan-05 19:58S 32°42' E 152°04'0 0.0
2018-Jan-05 18:34S 32°42' E 152°04'0 0.0
2018-Jan-05 18:13S 32°42' E 152°04'0 0.0
2018-Jan-05 17:58S 32°42' E 152°04'0 0.0
2018-Jan-05 17:25S 32°42' E 152°04'0 0.0
2018-Jan-05 14:13S 32°42' E 152°04'0 0.0
2018-Jan-05 06:46S 32°42' E 152°04'0 0.0
2018-Jan-05 06:25S 32°42' E 152°04'0 0.0
2018-Jan-05 05:10S 32°42' E 152°04'0 0.0
2018-Jan-05 03:58S 32°42' E 152°04'0 0.0
2018-Jan-05 03:01S 32°42' E 152°04'0 0.0
2018-Jan-05 01:25S 32°42' E 152°04'0 0.0
2018-Jan-04 23:49S 32°42' E 152°04'0 0.0
2018-Jan-04 23:25S 32°42' E 152°04'0 0.0
2018-Jan-04 17:37S 32°42' E 152°04'0 0.0
2018-Jan-04 14:13S 32°42' E 152°04'0 0.0
2018-Jan-04 11:10S 32°42' E 152°04'0 0.0
2018-Jan-04 10:49S 32°42' E 152°04'0 0.0
2018-Jan-04 10:25S 32°42' E 152°04'0 0.0
2018-Jan-04 09:58S 32°42' E 152°04'0 0.0
2018-Jan-04 07:25S 32°42' E 152°04'0 0.0
2018-Jan-04 06:58S 32°42' E 152°04'0 0.0
2018-Jan-04 05:49S 32°42' E 152°04'0 0.0
2018-Jan-04 00:13S 32°42' E 152°04'0 0.0
2018-Jan-03 12:13S 32°42' E 152°04'0 0.0
2018-Jan-03 11:10S 32°42' E 152°04'0 0.1
2018-Jan-03 10:49S 32°42' E 152°04'0 0.1
2018-Jan-03 10:25S 32°42' E 152°04'0 0.0
2018-Jan-03 08:01S 32°42' E 152°04'0 0.0
2018-Jan-03 07:25S 32°42' E 152°04'0 0.0
2018-Jan-03 05:58S 32°42' E 152°04'0 0.0
2018-Jan-02 16:52S 32°42' E 152°04'0 0.0
2018-Jan-02 16:25S 32°42' E 152°04'0 0.0
2018-Jan-02 14:37S 32°42' E 152°04'0 0.0
2018-Jan-02 11:10S 32°42' E 152°04'0 0.0
2018-Jan-02 09:04S 32°42' E 152°04'0 0.0
2018-Jan-02 06:37S 32°42' E 152°04'0 0.0
2018-Jan-02 04:28S 32°42' E 152°04'0 0.0
2018-Jan-01 13:40S 32°42' E 152°04'0 0.0
2018-Jan-01 13:28S 32°42' E 152°04'0 0.0
2018-Jan-01 10:16S 32°42' E 152°04'0 0.0
2018-Jan-01 09:49S 32°42' E 152°04'0 0.0
2018-Jan-01 03:58S 32°42' E 152°04'0 0.1
2018-Jan-01 03:28S 32°42' E 152°04'1 2.4
2018-Jan-01 03:00S 32°43' E 152°05'1 2.5
2018-Jan-01 02:30S 32°43' E 152°06'0 0.0
2018-Jan-01 02:00S 32°43' E 152°06'0 0.0
2018-Jan-01 01:30S 32°43' E 152°06'0 0.0
2018-Jan-01 00:30S 32°43' E 152°06'0 0.0
2017-Dec-31 21:00S 32°43' E 152°06'0 0.0
2017-Dec-31 20:30S 32°43' E 152°06'0 0.0
2017-Dec-31 20:00S 32°43' E 152°06'0 0.0
2017-Dec-31 19:30S 32°43' E 152°06'0 0.0
2017-Dec-31 19:00S 32°43' E 152°06'0 0.0
2017-Dec-31 18:30S 32°43' E 152°06'0 0.0
2017-Dec-31 18:00S 32°43' E 152°06'0 0.0
2017-Dec-31 17:30S 32°43' E 152°06'0 0.0
2017-Dec-31 17:00S 32°43' E 152°06'0 0.0
2017-Dec-31 16:30S 32°43' E 152°06'0 0.0
2017-Dec-31 16:00S 32°43' E 152°06'0 0.0
2017-Dec-31 15:30S 32°43' E 152°06'0 0.0
2017-Dec-31 15:00S 32°43' E 152°06'0 0.0
2017-Dec-31 14:30S 32°43' E 152°06'0 0.0
2017-Dec-31 14:00S 32°43' E 152°06'0 0.0
2017-Dec-31 13:30S 32°43' E 152°06'0 0.0
2017-Dec-31 13:00S 32°43' E 152°06'0 0.0
2017-Dec-31 12:30S 32°43' E 152°06'0 0.0
2017-Dec-31 12:00S 32°43' E 152°06'0 0.0
2017-Dec-31 11:30S 32°43' E 152°06'0 0.0
2017-Dec-31 11:00S 32°43' E 152°06'0 0.0
2017-Dec-31 10:30S 32°43' E 152°06'0 0.0
2017-Dec-31 10:00S 32°43' E 152°06'0 0.0
2017-Dec-31 09:30S 32°43' E 152°06'0 0.0
2017-Dec-31 09:00S 32°43' E 152°06'0 0.0
2017-Dec-31 08:30S 32°43' E 152°06'0 0.0
2017-Dec-31 08:00S 32°43' E 152°06'0 0.0
2017-Dec-31 07:30S 32°43' E 152°06'0 0.1
2017-Dec-31 07:00S 32°43' E 152°06'0 0.0
2017-Dec-31 06:30S 32°43' E 152°06'0 0.0
2017-Dec-31 06:00S 32°43' E 152°06'0 0.1
2017-Dec-31 05:30S 32°43' E 152°06'0 0.0
2017-Dec-31 05:00S 32°43' E 152°06'0 0.0
2017-Dec-31 04:30S 32°43' E 152°06'0 0.0
2017-Dec-31 04:00S 32°43' E 152°06'1 2.3
2017-Dec-31 03:30S 32°43' E 152°05'1 2.3
2017-Dec-31 02:59S 32°42' E 152°04'0 0.0
2017-Dec-31 00:23S 32°42' E 152°04'0 0.0
2017-Dec-30 19:59S 32°42' E 152°04'0 0.0
2017-Dec-30 16:44S 32°42' E 152°04'0 0.0
2017-Dec-30 14:35S 32°42' E 152°04'0 0.0
2017-Dec-30 14:26S 32°42' E 152°04'0 0.0
2017-Dec-30 13:59S 32°42' E 152°04'0 0.0
2017-Dec-30 08:56S 32°42' E 152°04'0 0.0
2017-Dec-30 04:41S 32°42' E 152°04'0 0.0
2017-Dec-30 04:20S 32°42' E 152°04'0 0.0
2017-Dec-30 03:59S 32°42' E 152°04'  
Track history (hours):
 
Tides and Currents Weather Stations Pressure Air Temp Water Temp Dewpoint Dewpoint Depression Visibility Wind Speed Wind Dir Waves Ship Positions

Madeira

Last reported at 2018-Jan-08 22:30 UTC. Time now 2018-Jan-24 12:07 UTC.
Position S 32°32' E 152°25'.
Warning: this ship's position is 15 days out of date.

Length 23 m.

Type: Sailing vessel. MMSI: 503094900.

Date/timePositionNaut miles runAvg speedWind from/ knotsBaromVisibWave heightAir tempDewpointWater temp
2018-Jan-08 22:30S 32°32' E 152°25'4 7.1
2018-Jan-08 22:00S 32°34' E 152°21'3 6.8
2018-Jan-08 21:30S 32°37' E 152°18'1 0.0
2018-Jan-08 10:22S 32°37' E 152°19'0 0.1
2018-Jan-08 09:58S 32°37' E 152°19'0 0.0
2018-Jan-08 07:16S 32°37' E 152°19'0 0.0
2018-Jan-08 06:58S 32°37' E 152°19'0 0.0
2018-Jan-08 06:28S 32°37' E 152°19'0 0.0
2018-Jan-08 05:58S 32°37' E 152°19'0 0.0
2018-Jan-08 05:28S 32°37' E 152°19'0 0.0
2018-Jan-08 04:58S 32°37' E 152°19'0 0.0
2018-Jan-08 04:25S 32°37' E 152°19'0 0.0
2018-Jan-08 03:58S 32°37' E 152°19'0 0.0
2018-Jan-08 03:28S 32°37' E 152°19'0 0.0
2018-Jan-08 02:58S 32°37' E 152°19'0 0.0
2018-Jan-08 02:28S 32°37' E 152°19'0 0.0
2018-Jan-08 01:58S 32°37' E 152°19'0 0.0
2018-Jan-08 01:28S 32°37' E 152°19'0 0.0
2018-Jan-08 00:58S 32°37' E 152°19'0 0.0
2018-Jan-08 00:28S 32°37' E 152°19'0 0.0
2018-Jan-08 00:00S 32°37' E 152°19'0 0.9
2018-Jan-07 23:30S 32°37' E 152°18'3 6.9
2018-Jan-07 23:00S 32°40' E 152°16'4 7.0
2018-Jan-07 22:30S 32°42' E 152°12'3 5.4
2018-Jan-07 21:58S 32°43' E 152°09'0 0.0
2018-Jan-07 21:28S 32°43' E 152°09'0 0.0
2018-Jan-07 20:58S 32°43' E 152°09'0 0.0
2018-Jan-07 20:28S 32°43' E 152°09'0 0.0
2018-Jan-07 19:58S 32°43' E 152°09'0 0.0
2018-Jan-07 19:28S 32°43' E 152°09'0 0.0
2018-Jan-07 18:58S 32°43' E 152°09'0 0.0
2018-Jan-07 18:28S 32°43' E 152°09'0 0.0
2018-Jan-07 17:58S 32°43' E 152°09'0 0.0
2018-Jan-07 17:28S 32°43' E 152°09'0 0.0
2018-Jan-07 16:58S 32°43' E 152°09'0 0.0
2018-Jan-07 16:25S 32°43' E 152°09'0 0.0
2018-Jan-07 15:55S 32°43' E 152°09'0 0.0
2018-Jan-07 15:28S 32°43' E 152°09'0 0.0
2018-Jan-07 14:58S 32°43' E 152°09'0 0.0
2018-Jan-07 14:28S 32°43' E 152°09'0 0.0
2018-Jan-07 13:58S 32°43' E 152°09'0 0.0
2018-Jan-07 13:28S 32°43' E 152°09'0 0.0
2018-Jan-07 12:58S 32°43' E 152°09'0 0.0
2018-Jan-07 12:28S 32°43' E 152°09'0 0.0
2018-Jan-07 11:55S 32°43' E 152°09'0 0.0
2018-Jan-07 11:28S 32°43' E 152°09'0 0.0
2018-Jan-07 10:58S 32°43' E 152°09'0 0.0
2018-Jan-07 10:28S 32°43' E 152°09'0 0.0
2018-Jan-07 09:58S 32°43' E 152°09'0 0.0
2018-Jan-07 09:28S 32°43' E 152°09'0 0.0
2018-Jan-07 08:58S 32°43' E 152°09'0 0.0
2018-Jan-07 08:28S 32°43' E 152°09'1 1.8
2018-Jan-07 07:58S 32°43' E 152°08'0 0.0
2018-Jan-07 07:28S 32°43' E 152°08'0 0.0
2018-Jan-07 06:58S 32°43' E 152°08'0 0.0
2018-Jan-07 06:28S 32°43' E 152°08'0 0.0
2018-Jan-07 05:58S 32°43' E 152°08'0 0.0
2018-Jan-07 05:28S 32°43' E 152°08'0 0.0
2018-Jan-07 04:58S 32°43' E 152°08'0 0.0
2018-Jan-07 04:28S 32°43' E 152°08'0 0.0
2018-Jan-07 03:58S 32°43' E 152°08'0 0.0
2018-Jan-07 03:28S 32°43' E 152°08'0 0.0
2018-Jan-07 02:58S 32°43' E 152°08'0 0.0
2018-Jan-07 02:28S 32°43' E 152°08'0 0.0
2018-Jan-07 01:58S 32°43' E 152°08'0 0.0
2018-Jan-07 01:28S 32°43' E 152°08'0 0.0
2018-Jan-07 00:28S 32°43' E 152°08'0 0.1
2018-Jan-06 23:58S 32°43' E 152°08'2 4.6
2018-Jan-06 23:30S 32°43' E 152°05'2 2.8
2018-Jan-06 22:58S 32°42' E 152°04'0 0.0
2018-Jan-06 21:01S 32°42' E 152°04'0 0.0
2018-Jan-06 20:01S 32°42' E 152°04'0 0.0
2018-Jan-06 19:58S 32°42' E 152°04'0 0.0
2018-Jan-06 17:13S 32°42' E 152°04'0 0.0
2018-Jan-06 15:37S 32°42' E 152°04'0 0.0
2018-Jan-06 06:10S 32°42' E 152°04'0 0.0
2018-Jan-06 05:46S 32°42' E 152°04'0 0.0
2018-Jan-06 05:25S 32°42' E 152°04'0 0.0
2018-Jan-06 03:01S 32°42' E 152°04'0 0.0
2018-Jan-06 02:58S 32°42' E 152°04'0 0.0
2018-Jan-06 01:25S 32°42' E 152°04'0 0.0
2018-Jan-06 00:49S 32°42' E 152°04'0 0.0
2018-Jan-05 19:58S 32°42' E 152°04'0 0.0
2018-Jan-05 18:34S 32°42' E 152°04'0 0.0
2018-Jan-05 18:13S 32°42' E 152°04'0 0.0
2018-Jan-05 17:58S 32°42' E 152°04'0 0.0
2018-Jan-05 17:25S 32°42' E 152°04'0 0.0
2018-Jan-05 14:13S 32°42' E 152°04'0 0.0
2018-Jan-05 06:46S 32°42' E 152°04'0 0.0
2018-Jan-05 06:25S 32°42' E 152°04'0 0.0
2018-Jan-05 05:10S 32°42' E 152°04'0 0.0
2018-Jan-05 03:58S 32°42' E 152°04'0 0.0
2018-Jan-05 03:01S 32°42' E 152°04'0 0.0
2018-Jan-05 01:25S 32°42' E 152°04'0 0.0
2018-Jan-04 23:49S 32°42' E 152°04'0 0.0
2018-Jan-04 23:25S 32°42' E 152°04'0 0.0
2018-Jan-04 17:37S 32°42' E 152°04'0 0.0
2018-Jan-04 14:13S 32°42' E 152°04'0 0.0
2018-Jan-04 11:10S 32°42' E 152°04'0 0.0
2018-Jan-04 10:49S 32°42' E 152°04'0 0.0
2018-Jan-04 10:25S 32°42' E 152°04'0 0.0
2018-Jan-04 09:58S 32°42' E 152°04'0 0.0
2018-Jan-04 07:25S 32°42' E 152°04'0 0.0
2018-Jan-04 06:58S 32°42' E 152°04'0 0.0
2018-Jan-04 05:49S 32°42' E 152°04'0 0.0
2018-Jan-04 00:13S 32°42' E 152°04'0 0.0
2018-Jan-03 12:13S 32°42' E 152°04'0 0.0
2018-Jan-03 11:10S 32°42' E 152°04'0 0.1
2018-Jan-03 10:49S 32°42' E 152°04'0 0.1
2018-Jan-03 10:25S 32°42' E 152°04'0 0.0
2018-Jan-03 08:01S 32°42' E 152°04'0 0.0
2018-Jan-03 07:25S 32°42' E 152°04'0 0.0
2018-Jan-03 05:58S 32°42' E 152°04'0 0.0
2018-Jan-02 16:52S 32°42' E 152°04'0 0.0
2018-Jan-02 16:25S 32°42' E 152°04'0 0.0
2018-Jan-02 14:37S 32°42' E 152°04'0 0.0
2018-Jan-02 11:10S 32°42' E 152°04'0 0.0
2018-Jan-02 09:04S 32°42' E 152°04'0 0.0
2018-Jan-02 06:37S 32°42' E 152°04'0 0.0
2018-Jan-02 04:28S 32°42' E 152°04'0 0.0
2018-Jan-01 13:40S 32°42' E 152°04'0 0.0
2018-Jan-01 13:28S 32°42' E 152°04'0 0.0
2018-Jan-01 10:16S 32°42' E 152°04'0 0.0
2018-Jan-01 09:49S 32°42' E 152°04'0 0.0
2018-Jan-01 03:58S 32°42' E 152°04'0 0.1
2018-Jan-01 03:28S 32°42' E 152°04'1 2.4
2018-Jan-01 03:00S 32°43' E 152°05'1 2.5
2018-Jan-01 02:30S 32°43' E 152°06'0 0.0
2018-Jan-01 02:00S 32°43' E 152°06'0 0.0
2018-Jan-01 01:30S 32°43' E 152°06'0 0.0
2018-Jan-01 00:30S 32°43' E 152°06'0 0.0
2017-Dec-31 21:00S 32°43' E 152°06'0 0.0
2017-Dec-31 20:30S 32°43' E 152°06'0 0.0
2017-Dec-31 20:00S 32°43' E 152°06'0 0.0
2017-Dec-31 19:30S 32°43' E 152°06'0 0.0
2017-Dec-31 19:00S 32°43' E 152°06'0 0.0
2017-Dec-31 18:30S 32°43' E 152°06'0 0.0
2017-Dec-31 18:00S 32°43' E 152°06'0 0.0
2017-Dec-31 17:30S 32°43' E 152°06'0 0.0
2017-Dec-31 17:00S 32°43' E 152°06'0 0.0
2017-Dec-31 16:30S 32°43' E 152°06'0 0.0
2017-Dec-31 16:00S 32°43' E 152°06'0 0.0
2017-Dec-31 15:30S 32°43' E 152°06'0 0.0
2017-Dec-31 15:00S 32°43' E 152°06'0 0.0
2017-Dec-31 14:30S 32°43' E 152°06'0 0.0
2017-Dec-31 14:00S 32°43' E 152°06'0 0.0
2017-Dec-31 13:30S 32°43' E 152°06'0 0.0
2017-Dec-31 13:00S 32°43' E 152°06'0 0.0
2017-Dec-31 12:30S 32°43' E 152°06'0 0.0
2017-Dec-31 12:00S 32°43' E 152°06'0 0.0
2017-Dec-31 11:30S 32°43' E 152°06'0 0.0
2017-Dec-31 11:00S 32°43' E 152°06'0 0.0
2017-Dec-31 10:30S 32°43' E 152°06'0 0.0
2017-Dec-31 10:00S 32°43' E 152°06'0 0.0
2017-Dec-31 09:30S 32°43' E 152°06'0 0.0
2017-Dec-31 09:00S 32°43' E 152°06'0 0.0
2017-Dec-31 08:30S 32°43' E 152°06'0 0.0
2017-Dec-31 08:00S 32°43' E 152°06'0 0.0
2017-Dec-31 07:30S 32°43' E 152°06'0 0.1
2017-Dec-31 07:00S 32°43' E 152°06'0 0.0
2017-Dec-31 06:30S 32°43' E 152°06'0 0.0
2017-Dec-31 06:00S 32°43' E 152°06'0 0.1
2017-Dec-31 05:30S 32°43' E 152°06'0 0.0
2017-Dec-31 05:00S 32°43' E 152°06'0 0.0
2017-Dec-31 04:30S 32°43' E 152°06'0 0.0
2017-Dec-31 04:00S 32°43' E 152°06'1 2.3
2017-Dec-31 03:30S 32°43' E 152°05'1 2.3
2017-Dec-31 02:59S 32°42' E 152°04'0 0.0
2017-Dec-31 00:23S 32°42' E 152°04'0 0.0
2017-Dec-30 19:59S 32°42' E 152°04'0 0.0
2017-Dec-30 16:44S 32°42' E 152°04'0 0.0
2017-Dec-30 14:35S 32°42' E 152°04'0 0.0
2017-Dec-30 14:26S 32°42' E 152°04'0 0.0
2017-Dec-30 13:59S 32°42' E 152°04'0 0.0
2017-Dec-30 08:56S 32°42' E 152°04'0 0.0
2017-Dec-30 04:41S 32°42' E 152°04'0 0.0
2017-Dec-30 04:20S 32°42' E 152°04'0 0.0
2017-Dec-30 03:59S 32°42' E 152°04'  

Dump ship's entire track history